createdAt,value
2019-01-08T00:01:03.172Z,76.46
2019-01-08T00:03:52.789Z,76.49
2019-01-08T00:06:42.758Z,76.72
2019-01-08T00:09:32.692Z,76.36
2019-01-08T00:12:22.677Z,76.42
2019-01-08T00:15:12.143Z,76.38
2019-01-08T00:18:01.563Z,76.38
2019-01-08T00:20:51.422Z,76.40
2019-01-08T00:23:41.514Z,76.36
2019-01-08T00:26:31.808Z,76.33
2019-01-08T00:29:21.563Z,76.26
2019-01-08T00:32:11.382Z,76.37
2019-01-08T00:35:01.418Z,76.21
2019-01-08T00:37:50.892Z,76.28
2019-01-08T00:40:41.343Z,76.24
2019-01-08T00:43:31.487Z,76.27
2019-01-08T00:46:20.983Z,76.16
2019-01-08T00:49:11.276Z,76.31
2019-01-08T00:52:01.409Z,76.30
2019-01-08T00:54:51.379Z,76.19
2019-01-08T00:57:41.431Z,76.49
2019-01-08T01:00:31.507Z,76.36
2019-01-08T01:03:21.549Z,76.24
2019-01-08T01:06:11.687Z,76.07
2019-01-08T01:09:01.567Z,76.16
2019-01-08T01:11:53.207Z,75.86
2019-01-08T01:14:42.951Z,76.43
2019-01-08T01:17:32.862Z,76.27
2019-01-08T01:20:22.424Z,76.34
2019-01-08T01:23:12.233Z,76.16
2019-01-08T01:26:02.373Z,76.06
2019-01-08T01:28:59.720Z,76.11
2019-01-08T01:31:43.475Z,76.22
2019-01-08T01:34:33.543Z,76.26
2019-01-08T01:37:23.085Z,76.29
2019-01-08T01:40:13.032Z,75.96
2019-01-08T01:43:02.758Z,75.93
2019-01-08T01:45:52.592Z,76.21
2019-01-08T01:48:42.530Z,76.14
2019-01-08T01:51:32.089Z,76.40
2019-01-08T01:54:22.712Z,75.91
2019-01-08T01:57:12.717Z,76.17
2019-01-08T02:00:02.398Z,76.24
2019-01-08T02:02:54.423Z,76.26
2019-01-08T02:05:44.502Z,76.39
2019-01-08T02:08:34.533Z,76.26
2019-01-08T02:11:24.335Z,76.32
2019-01-08T02:14:14.155Z,76.31
2019-01-08T02:17:03.959Z,76.54
2019-01-08T02:19:54.170Z,76.31
2019-01-08T02:22:44.045Z,76.29
2019-01-08T02:25:34.265Z,76.28
2019-01-08T02:28:24.254Z,76.29
2019-01-08T02:31:14.287Z,76.43
2019-01-08T02:34:04.423Z,76.17
2019-01-08T02:36:54.123Z,76.39
2019-01-08T02:39:44.216Z,76.34
2019-01-08T02:42:34.090Z,76.35
2019-01-08T02:45:24.176Z,76.19
2019-01-08T02:48:14.330Z,76.35
2019-01-08T02:51:04.234Z,76.48
2019-01-08T02:53:54.457Z,76.34
2019-01-08T02:56:44.520Z,76.33
2019-01-08T02:59:34.218Z,76.43
2019-01-08T03:02:24.055Z,76.40
2019-01-08T03:05:13.944Z,76.19
2019-01-08T03:08:04.169Z,76.24
2019-01-08T03:10:53.600Z,76.27
2019-01-08T03:13:43.521Z,75.83
2019-01-08T03:16:33.422Z,76.34
2019-01-08T03:19:23.177Z,75.89
2019-01-08T03:22:13.255Z,76.32
2019-01-08T03:25:02.850Z,76.17
2019-01-08T03:27:52.937Z,75.74
2019-01-08T03:30:42.991Z,75.82
2019-01-08T03:33:32.824Z,76.01
2019-01-08T03:36:24.898Z,75.41
2019-01-08T03:39:15.421Z,75.87
2019-01-08T03:42:05.432Z,75.66
2019-01-08T03:44:55.798Z,76.10
2019-01-08T03:47:45.933Z,76.22
2019-01-08T03:50:36.230Z,75.86
2019-01-08T03:53:25.793Z,76.19
2019-01-08T03:56:15.308Z,76.21
2019-01-08T03:59:05.149Z,76.31
2019-01-08T04:01:54.935Z,76.41
2019-01-08T04:04:45.106Z,76.38
2019-01-08T04:07:35.061Z,76.39
2019-01-08T04:10:25.191Z,76.23
2019-01-08T04:13:14.408Z,76.28
2019-01-08T04:16:03.919Z,76.24
2019-01-08T04:18:54.050Z,76.19
2019-01-08T04:21:43.801Z,75.94
2019-01-08T04:24:33.435Z,75.92
2019-01-08T04:27:23.958Z,76.01
2019-01-08T04:30:13.471Z,76.37
2019-01-08T04:33:03.242Z,76.43
2019-01-08T04:35:52.953Z,76.26
2019-01-08T04:38:43.069Z,76.29
2019-01-08T04:41:33.086Z,76.37
2019-01-08T04:44:22.139Z,75.97
2019-01-08T04:47:12.523Z,76.18
2019-01-08T04:50:02.195Z,76.28
2019-01-08T04:52:52.263Z,76.19
2019-01-08T04:55:42.072Z,76.39
2019-01-08T04:58:31.582Z,76.25
2019-01-08T05:01:21.739Z,76.33
2019-01-08T05:04:11.915Z,76.50
2019-01-08T05:07:01.567Z,76.22
2019-01-08T05:09:51.535Z,75.99
2019-01-08T05:12:41.495Z,76.00
2019-01-08T05:15:31.258Z,76.01
2019-01-08T05:18:21.273Z,75.88
2019-01-08T05:21:11.455Z,76.23
2019-01-08T05:24:01.215Z,75.97
2019-01-08T05:26:51.025Z,75.75
2019-01-08T05:29:40.840Z,76.05
2019-01-08T05:32:30.823Z,75.67
2019-01-08T05:35:20.879Z,75.65
2019-01-08T05:38:10.906Z,75.27
2019-01-08T05:41:00.692Z,75.27
2019-01-08T05:43:50.206Z,74.59
2019-01-08T05:46:39.918Z,75.29
2019-01-08T05:49:29.837Z,75.70
2019-01-08T05:52:20.186Z,75.67
2019-01-08T05:55:10.450Z,75.40
2019-01-08T05:58:00.412Z,75.09
2019-01-08T06:00:50.311Z,75.00
2019-01-08T06:03:40.395Z,75.09
2019-01-08T06:06:29.970Z,74.56
2019-01-08T06:09:19.898Z,75.18
2019-01-08T06:12:09.748Z,75.22
2019-01-08T06:14:59.572Z,75.24
2019-01-08T06:17:49.640Z,75.34
2019-01-08T06:20:39.936Z,75.42
2019-01-08T06:23:29.299Z,75.68
2019-01-08T06:26:19.413Z,75.42
2019-01-08T06:29:09.495Z,75.22
2019-01-08T06:31:59.719Z,75.45
2019-01-08T06:34:49.944Z,75.42
2019-01-08T06:37:39.710Z,75.51
2019-01-08T06:40:29.829Z,75.37
2019-01-08T06:43:19.798Z,75.36
2019-01-08T06:46:09.867Z,75.81
2019-01-08T06:48:59.869Z,75.32
2019-01-08T06:51:49.896Z,75.42
2019-01-08T06:54:39.654Z,75.25
2019-01-08T06:57:29.795Z,75.54
2019-01-08T07:00:19.572Z,75.06
2019-01-08T07:03:09.591Z,75.64
2019-01-08T07:06:01.319Z,75.66
2019-01-08T07:08:51.329Z,75.32
2019-01-08T07:11:41.485Z,75.24
2019-01-08T07:14:30.984Z,75.43
2019-01-08T07:17:20.677Z,75.76
2019-01-08T07:20:10.701Z,75.53
2019-01-08T07:23:00.470Z,75.57
2019-01-08T07:25:50.282Z,74.95
2019-01-08T07:28:40.286Z,74.72
2019-01-08T07:31:30.355Z,74.88
2019-01-08T07:34:20.523Z,74.62
2019-01-08T07:37:10.625Z,74.97
2019-01-08T07:40:00.358Z,75.45
2019-01-08T07:42:50.788Z,75.09
2019-01-08T07:45:40.554Z,75.18
2019-01-08T07:48:30.453Z,74.93
2019-01-08T07:51:20.711Z,74.80
2019-01-08T07:54:10.765Z,74.98
2019-01-08T07:57:00.664Z,75.11
2019-01-08T07:59:50.421Z,74.35
2019-01-08T08:02:40.255Z,74.79
2019-01-08T08:05:30.726Z,74.66
2019-01-08T08:08:21.868Z,74.57
2019-01-08T08:11:12.104Z,74.24
2019-01-08T08:14:02.235Z,74.18
2019-01-08T08:16:52.051Z,74.83
2019-01-08T08:19:42.232Z,74.60
2019-01-08T08:22:32.581Z,74.29
2019-01-08T08:25:22.287Z,74.48
2019-01-08T08:28:12.085Z,74.39
2019-01-08T08:31:02.144Z,75.03
2019-01-08T08:33:51.930Z,74.42
2019-01-08T08:36:42.190Z,74.68
2019-01-08T08:39:32.287Z,74.42
2019-01-08T08:42:22.453Z,73.68
2019-01-08T08:45:12.738Z,74.34
2019-01-08T08:48:02.534Z,74.63
2019-01-08T08:50:52.348Z,75.19
2019-01-08T08:53:41.915Z,74.91
2019-01-08T08:56:31.691Z,74.84
2019-01-08T08:59:21.782Z,74.46
2019-01-08T09:02:11.838Z,75.00
2019-01-08T09:05:01.670Z,74.12
2019-01-08T09:07:52.224Z,75.19
2019-01-08T09:10:42.421Z,74.85
2019-01-08T09:13:32.431Z,75.16
2019-01-08T09:16:22.101Z,74.96
2019-01-08T09:19:12.233Z,74.98
2019-01-08T09:22:02.008Z,75.26
2019-01-08T09:24:52.115Z,75.63
2019-01-08T09:27:42.505Z,74.90
2019-01-08T09:30:32.888Z,74.35
2019-01-08T09:33:23.281Z,74.76
2019-01-08T09:36:14.013Z,75.23
2019-01-08T09:39:04.842Z,75.14
2019-01-08T09:41:55.137Z,75.22
2019-01-08T09:44:44.817Z,75.12
2019-01-08T09:47:34.914Z,75.27
2019-01-08T09:50:24.714Z,74.66
2019-01-08T09:53:14.554Z,74.66
2019-01-08T09:56:04.504Z,75.58
2019-01-08T09:58:56.159Z,74.94
2019-01-08T10:01:47.096Z,74.91
2019-01-08T10:04:37.152Z,74.97
2019-01-08T10:07:27.699Z,75.08
2019-01-08T10:10:18.483Z,75.06
2019-01-08T10:13:08.487Z,74.78
2019-01-08T10:15:58.201Z,75.06
2019-01-08T10:18:48.242Z,75.07
2019-01-08T10:21:37.972Z,73.95
2019-01-08T10:24:27.780Z,74.98
2019-01-08T10:27:18.050Z,74.51
2019-01-08T10:30:10.177Z,74.94
2019-01-08T10:32:59.956Z,75.05
2019-01-08T10:35:53.256Z,74.54
2019-01-08T10:38:44.690Z,74.51
2019-01-08T10:41:40.084Z,74.85
2019-01-08T10:44:31.826Z,75.11
2019-01-08T10:47:24.512Z,74.89
2019-01-08T10:50:15.380Z,73.84
2019-01-08T10:53:07.599Z,74.24
2019-01-08T10:56:03.930Z,74.43
2019-01-08T10:58:54.158Z,74.79
2019-01-08T11:01:46.843Z,74.77
2019-01-08T11:04:37.973Z,74.96
2019-01-08T11:07:31.418Z,73.60
2019-01-08T11:10:25.016Z,74.12
2019-01-08T11:13:15.049Z,73.98
2019-01-08T11:16:05.841Z,73.43
2019-01-08T11:18:57.325Z,73.65
2019-01-08T11:21:47.623Z,74.06
2019-01-08T11:24:37.643Z,74.20
2019-01-08T11:27:27.909Z,73.41
2019-01-08T11:30:18.002Z,74.39
2019-01-08T11:33:07.463Z,74.23
2019-01-08T11:35:57.462Z,74.76
2019-01-08T11:38:47.257Z,75.32
2019-01-08T11:41:37.099Z,75.85
2019-01-08T11:44:26.972Z,76.08
2019-01-08T11:47:17.067Z,75.99
2019-01-08T11:50:07.397Z,76.57
2019-01-08T11:52:57.431Z,76.68
2019-01-08T11:55:47.573Z,76.68
2019-01-08T11:58:37.580Z,76.91
2019-01-08T12:01:27.514Z,76.84
2019-01-08T12:04:17.353Z,76.57
2019-01-08T12:07:07.251Z,76.92
2019-01-08T12:09:57.090Z,77.02
2019-01-08T12:12:46.947Z,77.19
2019-01-08T12:15:36.878Z,76.67
2019-01-08T12:18:27.481Z,76.19
2019-01-08T12:21:17.458Z,76.71
2019-01-08T12:24:07.593Z,76.93
2019-01-08T12:26:57.819Z,76.46
2019-01-08T12:29:48.543Z,76.36
2019-01-08T12:32:41.582Z,76.57
2019-01-08T12:35:38.262Z,76.72
2019-01-08T12:38:29.137Z,76.29
2019-01-08T12:41:25.612Z,76.72
2019-01-08T12:44:15.820Z,76.58
2019-01-08T12:47:06.048Z,76.37
2019-01-08T12:49:56.769Z,76.54
2019-01-08T12:52:48.103Z,76.42
2019-01-08T12:55:38.615Z,76.63
2019-01-08T12:58:31.370Z,76.30
2019-01-08T13:01:25.333Z,76.48
2019-01-08T13:04:19.545Z,75.90
2019-01-08T13:07:17.327Z,76.49
2019-01-08T13:10:15.776Z,75.92
2019-01-08T13:13:07.853Z,75.89
2019-01-08T13:15:58.100Z,75.72
2019-01-08T13:18:52.650Z,75.82
2019-01-08T13:21:48.880Z,75.68
2019-01-08T13:24:47.882Z,74.81
2019-01-08T13:27:39.705Z,75.16
2019-01-08T13:30:29.891Z,75.46
2019-01-08T13:33:20.370Z,75.55
2019-01-08T13:36:12.720Z,75.41
2019-01-08T13:39:06.000Z,74.51
2019-01-08T13:41:56.060Z,74.93
2019-01-08T13:44:45.852Z,76.13
2019-01-08T13:47:35.326Z,75.91
2019-01-08T13:50:24.917Z,76.17
2019-01-08T13:53:14.636Z,76.13
2019-01-08T13:56:04.232Z,76.45
2019-01-08T13:58:54.474Z,76.64
2019-01-08T14:01:44.262Z,76.58
2019-01-08T14:04:34.081Z,76.60
2019-01-08T14:07:24.188Z,76.58
2019-01-08T14:10:14.640Z,76.51
2019-01-08T14:13:04.757Z,76.89
2019-01-08T14:15:54.404Z,76.27
2019-01-08T14:18:44.166Z,76.97
2019-01-08T14:21:34.231Z,75.83
2019-01-08T14:24:28.115Z,76.54
2019-01-08T14:27:21.260Z,76.20
2019-01-08T14:30:19.219Z,75.50
2019-01-08T14:33:35.935Z,75.90
2019-01-08T14:36:32.788Z,76.06
2019-01-08T14:39:26.868Z,75.94
2019-01-08T14:42:31.064Z,76.02
2019-01-08T14:45:32.718Z,76.15
2019-01-08T14:48:31.854Z,76.07
2019-01-08T14:51:26.223Z,76.01
2019-01-08T14:55:01.216Z,76.07
2019-01-08T14:57:44.834Z,76.20
2019-01-08T15:00:35.024Z,76.22
2019-01-08T15:03:25.243Z,75.85
2019-01-08T15:06:15.335Z,75.70
2019-01-08T15:09:07.279Z,76.03
2019-01-08T15:11:56.571Z,75.82
2019-01-08T15:14:46.681Z,75.73
2019-01-08T15:17:36.531Z,75.70
2019-01-08T15:20:26.002Z,75.79
2019-01-08T15:23:15.422Z,75.90
2019-01-08T15:26:05.358Z,75.80
2019-01-08T15:28:55.596Z,75.86
2019-01-08T15:31:53.461Z,75.46
2019-01-08T15:35:19.288Z,75.87
2019-01-08T15:38:16.548Z,75.42
2019-01-08T15:41:09.778Z,75.82
2019-01-08T15:44:01.061Z,75.59
2019-01-08T15:46:50.895Z,75.59
2019-01-08T15:49:40.795Z,75.72
2019-01-08T15:52:31.185Z,75.88
2019-01-08T15:55:22.184Z,75.52
2019-01-08T15:58:14.349Z,75.38
2019-01-08T16:01:08.217Z,75.22
2019-01-08T16:03:58.711Z,74.99
2019-01-08T16:06:49.214Z,74.87
2019-01-08T16:09:39.191Z,75.12
2019-01-08T16:12:29.270Z,75.32
2019-01-08T16:15:19.302Z,75.16
2019-01-08T16:18:09.601Z,75.65
2019-01-08T16:20:59.302Z,75.41
2019-01-08T16:23:49.154Z,75.41
2019-01-08T16:26:38.946Z,75.48
2019-01-08T16:29:29.311Z,75.28
2019-01-08T16:32:20.301Z,75.43
2019-01-08T16:35:10.728Z,75.00
2019-01-08T16:38:00.792Z,74.70
2019-01-08T16:40:50.461Z,74.80
2019-01-08T16:43:40.292Z,74.88
2019-01-08T16:46:30.311Z,74.72
2019-01-08T16:49:19.935Z,74.21
2019-01-08T16:52:10.610Z,74.47
2019-01-08T16:55:00.910Z,74.62
2019-01-08T16:57:51.001Z,75.00
2019-01-08T17:00:41.489Z,74.86
2019-01-08T17:03:31.504Z,74.71
2019-01-08T17:06:21.520Z,74.78
2019-01-08T17:09:12.154Z,74.91
2019-01-08T17:12:02.123Z,74.09
2019-01-08T17:14:52.014Z,74.81
2019-01-08T17:17:41.765Z,74.27
2019-01-08T17:20:31.925Z,74.41
2019-01-08T17:23:21.869Z,74.85
2019-01-08T17:26:10.956Z,74.95
2019-01-08T17:29:01.123Z,74.67
2019-01-08T17:31:50.916Z,74.43
2019-01-08T17:34:41.363Z,74.26
2019-01-08T17:37:32.331Z,74.78
2019-01-08T17:40:22.397Z,75.10
2019-01-08T17:43:12.602Z,74.90
2019-01-08T17:46:02.162Z,75.09
2019-01-08T17:48:51.581Z,75.00
2019-01-08T17:51:41.267Z,74.78
2019-01-08T17:54:31.230Z,74.72
2019-01-08T17:57:20.666Z,75.10
2019-01-08T18:00:12.152Z,75.39
2019-01-08T18:03:02.250Z,75.41
2019-01-08T18:05:52.184Z,75.39
2019-01-08T18:08:42.472Z,75.25
2019-01-08T18:11:32.515Z,75.48
2019-01-08T18:14:22.603Z,75.46
2019-01-08T18:17:12.333Z,75.50
2019-01-08T18:20:01.830Z,75.11
2019-01-08T18:22:50.963Z,75.41
2019-01-08T18:25:40.367Z,75.26
2019-01-08T18:28:30.167Z,75.11
2019-01-08T18:31:19.605Z,74.84
2019-01-08T18:34:09.700Z,75.04
2019-01-08T18:36:59.536Z,75.27
2019-01-08T18:39:50.136Z,74.88
2019-01-08T18:42:41.171Z,74.41
2019-01-08T18:45:30.718Z,75.01
2019-01-08T18:48:20.660Z,75.14
2019-01-08T18:51:10.861Z,74.83
2019-01-08T18:54:00.357Z,75.43
2019-01-08T18:56:50.436Z,75.43
2019-01-08T18:59:41.194Z,75.37
2019-01-08T19:02:30.848Z,75.18
2019-01-08T19:05:20.483Z,75.53
2019-01-08T19:08:10.610Z,75.45
2019-01-08T19:11:00.446Z,75.34
2019-01-08T19:13:51.265Z,75.36
2019-01-08T19:16:43.043Z,75.35
2019-01-08T19:19:32.790Z,75.37
2019-01-08T19:22:22.653Z,75.08
2019-01-08T19:25:12.230Z,75.08
2019-01-08T19:28:01.924Z,75.41
2019-01-08T19:30:51.693Z,75.26
2019-01-08T19:33:41.795Z,75.45
2019-01-08T19:36:31.359Z,75.31
2019-01-08T19:39:20.547Z,75.37
2019-01-08T19:42:12.025Z,75.35
2019-01-08T19:45:01.996Z,75.53
2019-01-08T19:47:51.785Z,75.40
2019-01-08T19:50:41.989Z,75.68
2019-01-08T19:53:31.900Z,75.75
2019-01-08T19:56:21.561Z,75.76
2019-01-08T19:59:11.682Z,75.74
2019-01-08T20:02:01.778Z,75.88
2019-01-08T20:04:52.079Z,76.21
2019-01-08T20:07:41.798Z,76.02
2019-01-08T20:10:31.488Z,75.40
2019-01-08T20:13:20.926Z,75.70
2019-01-08T20:16:11.579Z,76.06
2019-01-08T20:19:01.800Z,75.99
2019-01-08T20:21:50.858Z,76.18
2019-01-08T20:24:40.842Z,76.31
2019-01-08T20:27:32.582Z,76.37
2019-01-08T20:30:22.444Z,76.48
2019-01-08T20:33:12.417Z,76.55
2019-01-08T20:36:02.582Z,76.62
2019-01-08T20:38:52.451Z,76.28
2019-01-08T20:41:42.311Z,76.54
2019-01-08T20:44:32.167Z,76.46
2019-01-08T20:47:23.240Z,76.38
2019-01-08T20:50:14.023Z,75.97
2019-01-08T20:53:03.883Z,76.09
2019-01-08T20:55:53.723Z,75.97
2019-01-08T20:58:43.630Z,75.83
2019-01-08T21:01:33.712Z,75.53
2019-01-08T21:04:23.535Z,75.74
2019-01-08T21:07:13.338Z,75.39
2019-01-08T21:10:02.997Z,75.56
2019-01-08T21:12:53.090Z,75.32
2019-01-08T21:15:43.072Z,75.53
2019-01-08T21:18:33.269Z,74.93
2019-01-08T21:21:23.444Z,75.30
2019-01-08T21:24:13.294Z,75.24
2019-01-08T21:27:03.102Z,75.15
2019-01-08T21:29:53.195Z,74.82
2019-01-08T21:32:42.806Z,75.16
2019-01-08T21:35:32.753Z,75.19
2019-01-08T21:38:22.698Z,75.23
2019-01-08T21:41:13.798Z,75.13
2019-01-08T21:44:03.886Z,74.72
2019-01-08T21:46:55.171Z,74.97
2019-01-08T21:49:45.241Z,75.19
2019-01-08T21:52:34.948Z,75.00
2019-01-08T21:55:24.875Z,75.27
2019-01-08T21:58:14.861Z,75.19
2019-01-08T22:01:05.119Z,75.04
2019-01-08T22:03:54.716Z,75.36
2019-01-08T22:06:46.356Z,75.32
2019-01-08T22:09:36.246Z,75.23
2019-01-08T22:12:26.474Z,74.99
2019-01-08T22:15:16.272Z,75.26
2019-01-08T22:18:08.001Z,75.04
2019-01-08T22:20:59.787Z,75.07
2019-01-08T22:23:49.783Z,75.73
2019-01-08T22:26:39.719Z,75.85
2019-01-08T22:29:29.778Z,75.77
2019-01-08T22:32:19.535Z,75.58
2019-01-08T22:35:09.850Z,75.48
2019-01-08T22:37:59.899Z,75.63
2019-01-08T22:40:49.986Z,75.80
2019-01-08T22:43:39.992Z,75.79
2019-01-08T22:46:29.930Z,75.57
2019-01-08T22:49:19.759Z,75.39
2019-01-08T22:52:10.047Z,75.59
2019-01-08T22:54:59.697Z,75.60
2019-01-08T22:57:49.682Z,75.34
2019-01-08T23:00:57.388Z,75.73
2019-01-08T23:03:47.479Z,76.37
2019-01-08T23:06:37.656Z,76.44
2019-01-08T23:09:27.714Z,76.69
2019-01-08T23:12:17.630Z,76.83
2019-01-08T23:15:07.311Z,76.83
2019-01-08T23:17:57.578Z,76.68
2019-01-08T23:20:47.545Z,76.64
2019-01-08T23:23:37.717Z,76.10
2019-01-08T23:26:27.586Z,76.57
2019-01-08T23:29:17.739Z,76.23
2019-01-08T23:32:07.916Z,76.08
2019-01-08T23:34:57.853Z,76.19
2019-01-08T23:37:47.921Z,76.44
2019-01-08T23:40:37.635Z,76.55
2019-01-08T23:43:27.542Z,76.89
2019-01-08T23:46:18.292Z,76.92
2019-01-08T23:49:08.118Z,77.16
2019-01-08T23:52:18.323Z,77.30
2019-01-08T23:55:08.387Z,77.70
2019-01-08T23:58:02.009Z,77.52
